createdAt,value
2022-12-17T00:04:28.770Z,97272.34
2022-12-17T00:09:50.484Z,97275.19
2022-12-17T00:15:10.809Z,97286.31
2022-12-17T00:20:31.614Z,97302.81
2022-12-17T00:25:56.423Z,97310.41
2022-12-17T00:31:16.576Z,97322.16
2022-12-17T00:36:36.787Z,97334.13
2022-12-17T00:41:57.360Z,97332.38
2022-12-17T00:47:17.704Z,97331.63
2022-12-17T00:52:38.357Z,97337.38
2022-12-17T00:57:58.490Z,97345.25
2022-12-17T01:03:22.957Z,97358.47
2022-12-17T01:08:43.403Z,97371.66
2022-12-17T01:14:04.068Z,97376.13
2022-12-17T01:19:24.545Z,97383.84
2022-12-17T01:24:45.141Z,97392.84
2022-12-17T01:30:05.513Z,97397.69
2022-12-17T01:35:25.682Z,97408.25
2022-12-17T01:40:46.245Z,97411.06
2022-12-17T01:46:07.488Z,97417.22
2022-12-17T01:51:28.003Z,97415.09
2022-12-17T01:56:48.405Z,97425.84
2022-12-17T02:02:08.836Z,97436.03
2022-12-17T02:07:56.526Z,97442.44
2022-12-17T02:13:22.100Z,97438.78
2022-12-17T02:18:49.708Z,97437.97
2022-12-17T02:24:28.904Z,97439.34
2022-12-17T02:29:54.792Z,97450.38
2022-12-17T02:35:20.324Z,97447.69
2022-12-17T02:40:41.835Z,97464.75
2022-12-17T02:46:02.449Z,97468.09
2022-12-17T02:51:23.232Z,97467.63
2022-12-17T02:56:43.757Z,97471.69
2022-12-17T03:02:04.358Z,97483.78
2022-12-17T03:07:25.687Z,97486.63
2022-12-17T03:12:46.019Z,97489.22
2022-12-17T03:18:06.417Z,97506.97
2022-12-17T03:23:28.271Z,97507.44
2022-12-17T03:28:48.735Z,97513.25
2022-12-17T03:34:09.032Z,97518.34
2022-12-17T03:39:29.481Z,97529.81
2022-12-17T03:44:49.876Z,97532.91
2022-12-17T03:50:10.338Z,97536.97
2022-12-17T03:55:30.760Z,97538.75
2022-12-17T04:00:51.059Z,97542.50
2022-12-17T04:06:11.405Z,97551.16
2022-12-17T04:11:31.789Z,97560.53
2022-12-17T04:16:52.189Z,97566.94
2022-12-17T04:22:12.568Z,97576.69
2022-12-17T04:27:32.635Z,97591.44
2022-12-17T04:32:53.079Z,97595.47
2022-12-17T04:38:13.493Z,97595.47
2022-12-17T04:43:34.302Z,97606.66
2022-12-17T04:48:54.543Z,97598.72
2022-12-17T04:54:15.376Z,97611.22
2022-12-17T04:59:35.705Z,97616.22
2022-12-17T05:04:56.061Z,97616.75
2022-12-17T05:10:16.343Z,97630.22
2022-12-17T05:15:36.758Z,97632.63
2022-12-17T05:20:56.992Z,97639.66
2022-12-17T05:26:21.683Z,97646.59
2022-12-17T05:31:42.254Z,97659.63
2022-12-17T05:37:02.539Z,97664.00
2022-12-17T05:42:22.972Z,97670.41
2022-12-17T05:47:43.335Z,97681.00
2022-12-17T05:53:03.808Z,97691.53
2022-12-17T05:58:30.148Z,97695.88
2022-12-17T06:03:51.208Z,97704.00
2022-12-17T06:09:11.919Z,97719.91
2022-12-17T06:14:32.188Z,97719.91
2022-12-17T06:19:52.403Z,97725.88
2022-12-17T06:25:13.234Z,97720.16
2022-12-17T06:30:33.811Z,97732.72
2022-12-17T06:35:54.044Z,97735.56
2022-12-17T06:41:14.461Z,97744.47
2022-12-17T06:46:34.887Z,97735.28
2022-12-17T06:51:55.162Z,97731.59
2022-12-17T06:57:15.564Z,97758.75
2022-12-17T07:02:36.136Z,97773.16
2022-12-17T07:07:56.486Z,97786.72
2022-12-17T07:13:24.631Z,97791.56
2022-12-17T07:18:44.863Z,97799.94
2022-12-17T07:24:05.332Z,97799.28
2022-12-17T07:29:25.693Z,97809.97
2022-12-17T07:34:45.953Z,97819.03
2022-12-17T07:40:06.351Z,97822.03
2022-12-17T07:45:26.747Z,97833.75
2022-12-17T07:50:47.024Z,97835.09
2022-12-17T07:56:07.292Z,97843.78
2022-12-17T08:01:27.716Z,97853.31
2022-12-17T08:06:47.920Z,97854.50
2022-12-17T08:12:08.348Z,97856.16
2022-12-17T08:17:28.706Z,97872.56
2022-12-17T08:22:48.954Z,97882.22
2022-12-17T08:28:50.165Z,97874.88
2022-12-17T08:34:10.915Z,97898.00
2022-12-17T08:39:30.975Z,97904.88
2022-12-17T08:44:51.269Z,97904.50
2022-12-17T08:50:11.634Z,97918.75
2022-12-17T08:55:31.833Z,97921.75
2022-12-17T09:00:52.330Z,97914.06
2022-12-17T09:06:13.341Z,97911.72
2022-12-17T09:11:33.899Z,97924.44
2022-12-17T09:16:54.401Z,97932.16
2022-12-17T09:22:14.863Z,97938.50
2022-12-17T09:27:35.262Z,97949.38
2022-12-17T09:32:55.694Z,97952.91
2022-12-17T09:38:16.167Z,97955.09
2022-12-17T09:43:49.244Z,97956.28
2022-12-17T09:49:12.999Z,97964.97
2022-12-17T09:54:42.696Z,97967.31
2022-12-17T10:00:03.012Z,97965.31
2022-12-17T10:05:53.141Z,97962.13
2022-12-17T10:11:13.646Z,97970.63
2022-12-17T10:16:52.082Z,97969.97
2022-12-17T10:22:12.718Z,97972.84
2022-12-17T10:27:37.146Z,97966.00
2022-12-17T10:32:57.484Z,97959.09
2022-12-17T10:38:28.496Z,97960.94
2022-12-17T10:43:50.450Z,97963.66
2022-12-17T10:49:11.728Z,97974.03
2022-12-17T10:54:49.015Z,97980.03
2022-12-17T11:00:10.252Z,97976.34
2022-12-17T11:05:37.171Z,97986.91
2022-12-17T11:11:00.652Z,97987.34
2022-12-17T11:16:22.223Z,97994.69
2022-12-17T11:21:59.481Z,98003.22
2022-12-17T11:27:22.208Z,98000.31
2022-12-17T11:33:02.748Z,97990.88
2022-12-17T11:38:26.143Z,97994.50
2022-12-17T11:43:55.895Z,97994.44
2022-12-17T11:49:28.154Z,97999.72
2022-12-17T11:54:55.525Z,97996.53
2022-12-17T12:00:22.516Z,97991.38
2022-12-17T12:06:01.823Z,97990.44
2022-12-17T12:11:39.222Z,97990.66
2022-12-17T12:16:59.792Z,97989.47
2022-12-17T12:22:36.809Z,97993.22
2022-12-17T12:27:56.907Z,97985.16
2022-12-17T12:33:25.484Z,97985.78
2022-12-17T12:38:49.021Z,97998.13
2022-12-17T12:44:13.412Z,97992.63
2022-12-17T12:49:44.650Z,98000.69
2022-12-17T12:55:04.915Z,97991.59
2022-12-17T13:00:25.219Z,97988.41
2022-12-17T13:05:37.915Z,98001.69
2022-12-17T13:10:39.909Z,97999.88
2022-12-17T13:15:44.823Z,98011.09
2022-12-17T13:20:56.531Z,98017.78
2022-12-17T13:26:14.809Z,98023.47
2022-12-17T13:31:18.253Z,98017.78
2022-12-17T13:36:44.113Z,98020.75
2022-12-17T13:41:45.728Z,98027.19
2022-12-17T13:46:48.774Z,98034.75
2022-12-17T13:52:07.966Z,98048.53
2022-12-17T13:57:18.918Z,98043.84
2022-12-17T14:02:25.325Z,98050.84
2022-12-17T14:07:27.751Z,98055.41
2022-12-17T14:12:34.683Z,98064.13
2022-12-17T14:17:44.388Z,98062.94
2022-12-17T14:22:51.467Z,98068.03
2022-12-17T14:27:58.612Z,98071.88
2022-12-17T14:33:00.467Z,98085.63
2022-12-17T14:38:03.998Z,98082.13
2022-12-17T14:43:05.584Z,98095.84
2022-12-17T14:48:15.401Z,98087.00
2022-12-17T14:53:25.470Z,98100.94
2022-12-17T14:58:27.673Z,98099.97
2022-12-17T15:03:31.688Z,98106.72
2022-12-17T15:08:34.871Z,98109.41
2022-12-17T15:13:36.606Z,98110.41
2022-12-17T15:18:39.258Z,98123.00
2022-12-17T15:23:42.864Z,98127.16
2022-12-17T15:28:44.519Z,98134.72
2022-12-17T15:33:46.111Z,98129.09
2022-12-17T15:38:47.691Z,98131.16
2022-12-17T15:43:50.191Z,98129.59
2022-12-17T15:48:52.620Z,98132.97
2022-12-17T15:53:54.156Z,98139.28
2022-12-17T15:58:57.295Z,98141.19
2022-12-17T16:03:58.825Z,98137.13
2022-12-17T16:09:00.577Z,98146.84
2022-12-17T16:14:02.419Z,98138.06
2022-12-17T16:19:04.153Z,98146.88
2022-12-17T16:24:06.086Z,98151.03
2022-12-17T16:29:07.677Z,98150.97
2022-12-17T16:34:10.457Z,98148.72
2022-12-17T16:39:16.826Z,98165.47
2022-12-17T16:44:18.965Z,98160.41
2022-12-17T16:49:21.681Z,98165.16
2022-12-17T16:54:25.998Z,98164.69
2022-12-17T16:59:27.668Z,98163.09
2022-12-17T17:04:29.325Z,98180.22
2022-12-17T17:09:34.074Z,98184.69
2022-12-17T17:14:35.793Z,98190.34
2022-12-17T17:19:37.363Z,98204.66
2022-12-17T17:24:39.108Z,98206.41
2022-12-17T17:29:41.028Z,98204.50
2022-12-17T17:34:42.752Z,98217.16
2022-12-17T17:39:44.404Z,98215.47
2022-12-17T17:44:45.907Z,98229.84
2022-12-17T17:49:47.498Z,98234.94
2022-12-17T17:54:49.557Z,98240.63
2022-12-17T17:59:51.375Z,98239.56
2022-12-17T18:04:52.936Z,98251.47
2022-12-17T18:09:54.808Z,98261.19
2022-12-17T18:20:18.101Z,98258.69
2022-12-17T18:25:19.774Z,98262.34
2022-12-17T18:30:21.519Z,98264.88
2022-12-17T18:35:23.139Z,98279.38
2022-12-17T18:40:28.755Z,98281.63
2022-12-17T18:45:38.090Z,98290.72
2022-12-17T18:50:39.718Z,98292.97
2022-12-17T18:55:41.670Z,98292.84
2022-12-17T19:00:43.800Z,98302.13
2022-12-17T19:05:49.036Z,98299.72
2022-12-17T19:10:54.949Z,98307.03
2022-12-17T19:15:56.606Z,98313.03
2022-12-17T19:20:58.580Z,98310.38
2022-12-17T19:26:14.221Z,98309.81
2022-12-17T19:31:17.012Z,98309.53
2022-12-17T19:36:22.650Z,98311.50
2022-12-17T19:41:28.902Z,98312.63
2022-12-17T19:46:31.464Z,98315.44
2022-12-17T19:51:33.728Z,98309.84
2022-12-17T19:56:35.760Z,98304.66
2022-12-17T20:01:40.250Z,98308.41
2022-12-17T20:06:42.841Z,98315.59
2022-12-17T20:11:45.517Z,98314.91
2022-12-17T20:16:51.956Z,98317.13
2022-12-17T20:21:55.585Z,98321.75
2022-12-17T20:26:57.343Z,98331.72
2022-12-17T20:31:59.246Z,98324.69
2022-12-17T20:37:00.947Z,98326.94
2022-12-17T20:42:02.533Z,98329.75
2022-12-17T20:47:04.208Z,98332.09
2022-12-17T20:52:05.789Z,98325.69
2022-12-17T20:57:07.406Z,98322.34
2022-12-17T21:02:10.245Z,98341.38
2022-12-17T21:07:12.081Z,98342.66
2022-12-17T21:12:13.765Z,98348.66
2022-12-17T21:17:15.988Z,98340.47
2022-12-17T21:22:17.734Z,98331.50
2022-12-17T21:27:19.279Z,98340.47
2022-12-17T21:32:20.902Z,98337.47
2022-12-17T21:37:22.520Z,98356.81
2022-12-17T21:42:42.939Z,98360.03
2022-12-17T21:47:44.534Z,98370.91
2022-12-17T21:52:46.173Z,98373.38
2022-12-17T21:57:47.885Z,98383.31
2022-12-17T22:02:50.080Z,98402.75
2022-12-17T22:07:52.308Z,98407.19
2022-12-17T22:13:13.155Z,98406.38
2022-12-17T22:18:14.751Z,98400.53
2022-12-17T22:23:16.323Z,98396.88
2022-12-17T22:28:18.313Z,98406.44
2022-12-17T22:33:41.698Z,98413.13
2022-12-17T22:42:18.735Z,98415.69
2022-12-17T22:44:41.941Z,98418.75
2022-12-17T22:49:24.630Z,98417.34
2022-12-17T22:54:26.215Z,98421.69
2022-12-17T22:59:28.271Z,98417.91
2022-12-17T23:04:32.224Z,98417.06
2022-12-17T23:09:33.897Z,98421.00
2022-12-17T23:14:35.505Z,98427.44
2022-12-17T23:19:37.226Z,98424.63
2022-12-17T23:24:38.853Z,98413.09
2022-12-17T23:29:40.524Z,98403.84
2022-12-17T23:34:42.528Z,98410.84
2022-12-17T23:39:44.192Z,98386.66
2022-12-17T23:44:45.974Z,98388.91
2022-12-17T23:49:47.889Z,98378.22
2022-12-17T23:54:49.500Z,98385.22
2022-12-17T23:59:51.241Z,98393.91
